Capitan Anibal Arab Airport


Codes: SLCO/CIJ
Name: Capitan Anibal Arab Airport
City: Cobija
Country: Bolivia
Elevation: 889 ft.
Wikipedia:

Photos at Capitan Anibal Arab Airport


   Photos courtesy of SpottingLog. You can add your own sightings and photos by signing up for a free trial today.



No photos found.

Weather at Capitan Anibal Arab Airport


Time (UTC)DescriptionTempratureWindCloud coverageVisibilityPressureHumidity
21-Feb-2024 03:00Moderate Rain24°C2 mph, NE86%10000m1009hPa99%
21-Feb-2024 06:00Light Rain23°C2 mph, N93%10000m1008hPa99%
21-Feb-2024 09:00Light Rain23°C2 mph, NW100%10000m1008hPa99%
21-Feb-2024 12:00Light Rain23°C2 mph, N100%10000m1010hPa99%
21-Feb-2024 15:00Light Rain23°C2 mph, N100%10000m1010hPa99%
21-Feb-2024 18:00Light Rain25°C2 mph, N100%10000m1007hPa94%
21-Feb-2024 21:00Light Rain25°C2 mph, N100%10000m1005hPa90%
22-Feb-2024 00:00Light Rain24°C2 mph, N100%10000m1006hPa98%
22-Feb-2024 03:00Light Rain23°C2 mph, NE100%10000m1008hPa98%
22-Feb-2024 06:00Overcast Clouds23°C2 mph, NE100%10000m1006hPa99%
22-Feb-2024 09:00Light Rain23°C2 mph, N100%9916m1006hPa100%
22-Feb-2024 12:00Moderate Rain23°C2 mph, NW100%10000m1009hPa99%
22-Feb-2024 15:00Light Rain24°C4 mph, NW100%10000m1010hPa98%
22-Feb-2024 18:00Light Rain24°C0 mph, N100%10000m1008hPa98%
22-Feb-2024 21:00Light Rain24°C2 mph, W100%10000m1006hPa98%
23-Feb-2024 00:00Light Rain23°C2 mph, SW100%10000m1008hPa99%
23-Feb-2024 03:00Overcast Clouds22°C2 mph, W100%10000m1009hPa99%
23-Feb-2024 06:00Overcast Clouds22°C2 mph, SW100%10000m1008hPa99%
23-Feb-2024 09:00Light Rain22°C2 mph, SW100%10000m1008hPa99%
23-Feb-2024 12:00Overcast Clouds23°C0 mph, SW97%10000m1010hPa96%
23-Feb-2024 15:00Broken Clouds32°C2 mph, NW66%10000m1010hPa56%
23-Feb-2024 18:00Broken Clouds34°C4 mph, W76%10000m1007hPa46%
23-Feb-2024 21:00Light Rain30°C2 mph, NW91%10000m1005hPa63%
24-Feb-2024 00:00Light Rain24°C0 mph, N93%10000m1007hPa93%
24-Feb-2024 03:00Light Rain22°C2 mph, N100%10000m1010hPa99%
24-Feb-2024 06:00Light Rain22°C2 mph, NE100%10000m1009hPa98%
24-Feb-2024 09:00Light Rain22°C2 mph, NW100%6659m1009hPa99%
24-Feb-2024 12:00Light Rain23°C2 mph, NE100%10000m1012hPa99%
24-Feb-2024 15:00Light Rain23°C0 mph, NE100%10000m1014hPa98%
24-Feb-2024 18:00Light Rain24°C0 mph, E100%10000m1011hPa98%
24-Feb-2024 21:00Light Rain24°C0 mph, SE100%10000m1010hPa97%
25-Feb-2024 00:00Light Rain23°C0 mph, W100%10000m1011hPa99%
25-Feb-2024 03:00Overcast Clouds23°C2 mph, SE100%10000m1012hPa99%
25-Feb-2024 06:00Overcast Clouds22°C0 mph, SW100%10000m1012hPa99%
25-Feb-2024 09:00Overcast Clouds22°C2 mph, E99%10000m1012hPa100%
25-Feb-2024 12:00Overcast Clouds23°C0 mph, E100%10000m1014hPa99%
25-Feb-2024 15:00Light Rain25°C2 mph, E100%10000m1015hPa86%
25-Feb-2024 18:00Light Rain27°C2 mph, E100%7295m1011hPa87%
25-Feb-2024 21:00Moderate Rain24°C2 mph, SE95%9039m1010hPa97%
26-Feb-2024 00:00Light Rain23°C2 mph, NE96%10000m1012hPa98%